logo
Rechercher aéroport 
image banner adimage banner adimage banner ad
image banner ad

LZKRAK - Krakovany

Situé à Piešťany, Slovakia

ICAO - , IATA -

Données fournies par Airmate  

Information générale

Coordonnées: N48°38'2" E17°43'56"
Élévation : 682 feet MSL.
 
Voir autres Aéroports à Trnava

Données opérationnelles

Special qualification required
Heure actuelle UTC:
Heure actuelle locale:
Météo à : LZPP - Piestany ( 7 km )
METAR: LZPP 201200Z 27004KT 220V320 9999 FEW025 23/16 Q1012
TAF: TAF LZPP 201115Z 2012/2021 03006KT 9999 SCT035 TEMPO 2012/2018 10015G25KT -SHRA FEW025 FEW035CB BKN040 PROB30 TEMPO 2012/2018 4000 TSRA SCT030CB
Voir NOTAMs / SUP AIP / TFR affectant cet aéroport [VIEW]
Fréquences de communication: [VIEW]

Pistes:

Identifiant RWYQFULongueur (ft)Largeur (ft)SurfaceLDA (ft)
13125°203482GRASS2034
31305°203482GRASS2034

Coordonnées de l'aéroport

Adresse: Piešťany Slovakia

Vue satellite de LZKRAK